Flight Track Log - Related Links

Times and Time Zones

All times are in EDT time to prevent confusion due to time zone crossing. See the N865JM flight status page for this flight to view local times or setup timezone preferences in your user account.

Time Position Orientation Groundspeed Altitude Reporting Facility
EDT Latitude Longitude Course Direction KTS MPH feet Rate Location/Type
Wed 08:43:16 AM 25.9153 -80.2556 81° East 180 207 400  Level Miami Center
Wed 08:43:45 AM 25.9189 -80.2306 81° East 236 272 1,100 1,412 Climbing Miami Center
Wed 08:44:24 AM 25.9250 -80.1683 84° East 270 311 2,000 871 Climbing Miami Center
Wed 08:44:47 AM 25.9300 -80.1522 71° East 256 295 2,000 492 Level Miami Center
Wed 08:45:25 AM 25.9819 -80.1264 24° Northeast 268 308 2,500 1,180 Climbing Miami Center
Wed 08:45:48 AM 26.0064 -80.1439 327° Northwest 269 310 3,200 1,574 Climbing Miami Center
Wed 08:46:26 AM 26.0136 -80.1914 280° West 259 298 4,100 1,258 Climbing Miami Center
Wed 08:46:50 AM 26.0186 -80.2233 280° West 264 304 4,500 2,852 Climbing Miami Center
Wed 08:47:27 AM 26.0228 -80.2800 275° West 269 310 7,000 2,164 Climbing Miami Center
Wed 08:47:51 AM 26.0269 -80.3075 280° West 272 313 6,700  Descending Miami Center
Wed 08:48:53 AM 26.0200 -80.4064 266° West 319 367 7,000 780 Climbing Miami Center
Wed 08:49:54 AM 26.0206 -80.4931 270° West 283 326 8,300 1,220 Climbing Miami Center
Wed 08:50:56 AM 26.0125 -80.5775 264° West 280 322 9,500 1,317 Climbing Miami Center
Wed 08:51:57 AM 26.0581 -80.6653 300° West 295 339 11,000 1,951 Climbing Miami Center
Wed 08:52:59 AM 26.1306 -80.7247 324° Northwest 323 372 13,500 2,488 Climbing Miami Center
Wed 08:54:00 AM 26.2031 -80.7869 322° Northwest 326 375 16,100 2,439 Climbing Miami Center
Wed 08:55:02 AM 26.2850 -80.8578 322° Northwest 345 397 18,500 2,177 Climbing Miami Center
Wed 08:56:04 AM 26.3742 -80.9142 330° Northwest 368 423 20,600 1,951 Climbing Miami Center
Wed 08:57:05 AM 26.4714 -80.9767 330° Northwest 374 430 22,500 1,707 Climbing Miami Center
Wed 08:58:07 AM 26.5644 -81.0364 330° Northwest 383 441 24,100 1,463 Climbing Miami Center
Wed 08:59:08 AM 26.6653 -81.1008 330° Northwest 398 458 25,500 1,317 Climbing Miami Center
Wed 09:00:10 AM 26.7661 -81.1681 329° Northwest 409 471 26,800 1,171 Climbing Miami Center
Wed 09:01:11 AM 26.8653 -81.2328 330° Northwest 414 476 27,900 585 Climbing Miami Center
Wed 09:02:13 AM 26.9708 -81.3011 330° Northwest 437 503 28,000 48 Climbing Miami Center
Wed 09:03:15 AM 27.0872 -81.3753 330° Northwest 441 507 28,000  Level Miami Center
Wed 09:04:16 AM 27.1897 -81.4408 330° Northwest 439 505 28,000  Level Miami Center
Wed 09:05:18 AM 27.2986 -81.5125 330° Northwest 436 502 28,000  Level Miami Center
Wed 09:06:19 AM 27.4119 -81.5853 330° Northwest 442 509 28,000  Level Miami Center
Wed 09:07:21 AM 27.5272 -81.6606 330° Northwest 451 519 28,000  Level Miami Center
Wed 09:08:23 AM 27.6342 -81.7303 330° Northwest 458 527 28,000  Level Miami Center
Wed 09:09:24 AM 27.7492 -81.8058 330° Northwest 459 528 28,000 -49 Level Miami Center
Wed 09:10:26 AM 27.8425 -81.8669 330° Northwest 457 526 27,900  Descending Miami Center
Wed 09:11:27 AM 27.9725 -81.9531 330° Northwest 452 520 28,000 49 Climbing Miami Center
Wed 09:12:29 AM 28.0794 -82.0239 330° Northwest 445 512 28,000 -49 Level Miami Center
Wed 09:13:30 AM 28.1869 -82.0956 330° Northwest 445 512 27,900  Descending Miami Center
Wed 09:14:32 AM 28.2922 -82.1658 330° Northwest 441 507 28,000 49 Climbing Miami Center
Wed 09:15:33 AM 28.4014 -82.2378 330° Northwest 442 509 28,000  Level Miami Center
Wed 09:16:35 AM 28.5067 -82.3083 330° Northwest 441 507 28,000  Level Miami Center
Wed 09:17:36 AM 28.6122 -82.3781 330° Northwest 442 509 28,000  Level Miami Center
Wed 09:18:38 AM 28.7206 -82.4447 332° Northwest 442 509 28,000  Level Miami Center
Wed 09:19:39 AM 28.8561 -82.5139 336° Northwest 445 512 28,000  Level Miami Center
Wed 09:20:41 AM 28.9697 -82.5722 336° Northwest 445 512 28,000  Level Miami Center
Wed 09:21:43 AM 29.0828 -82.6322 335° Northwest 446 513 28,000  Level Miami Center
Wed 09:22:44 AM 29.1939 -82.6925 335° Northwest 446 513 28,000  Level Miami Center
Wed 09:23:46 AM 29.3067 -82.7497 336° Northwest 444 511 28,000  Level Miami Center
Wed 09:24:47 AM 29.4178 -82.8100 335° Northwest 444 511 28,000  Level Miami Center
Wed 09:25:49 AM 29.5306 -82.8703 335° Northwest 444 511 28,000  Level Miami Center
Wed 09:26:50 AM 29.6425 -82.9300 335° Northwest 445 512 28,000  Level Miami Center
Wed 09:27:56 AM 29.7864 -83.0097 334° Northwest 442 509 28,000  Level Jacksonville Center
Wed 09:28:56 AM 29.8989 -83.0697 335° Northwest 445 512 28,000  Level Jacksonville Center
Wed 09:29:56 AM 30.0117 -83.1300 335° Northwest 439 505 28,000  Level Jacksonville Center
Wed 09:30:56 AM 30.1139 -83.1831 336° Northwest 439 505 28,000  Level Jacksonville Center
Wed 09:31:56 AM 30.2242 -83.2436 335° Northwest 439 505 28,000  Level Jacksonville Center
Wed 09:31:56 AM 30.2242 -83.2436 335° Northwest 439 505 28,000  Level Jacksonville Center
Wed 09:32:56 AM 30.3347 -83.3042 335° Northwest 439 505 28,000  Level Jacksonville Center
Wed 09:33:56 AM 30.4453 -83.3625 336° Northwest 439 505 28,000  Level Jacksonville Center
Wed 09:34:56 AM 30.5556 -83.4233 335° Northwest 444 511 28,000  Level Jacksonville Center
Wed 09:35:56 AM 30.6661 -83.4819 335° Northwest 444 511 28,000  Level Jacksonville Center
Wed 09:36:56 AM 30.7744 -83.5431 334° Northwest 444 511 28,000  Level Jacksonville Center
Wed 09:37:56 AM 30.8847 -83.6042 335° Northwest 439 505 28,000  Level Jacksonville Center
Wed 09:38:56 AM 30.9969 -83.6658 335° Northwest 439 505 28,000  Level Jacksonville Center
Wed 09:39:56 AM 31.1072 -83.7272 335° Northwest 439 505 28,000  Level Jacksonville Center
Wed 09:40:56 AM 31.2156 -83.7889 334° Northwest 439 505 28,000  Level Jacksonville Center
Wed 09:42:53 AM 31.4419 -83.9147 335° Northwest 429 494 28,000  Level Atlanta Center
Wed 09:43:53 AM 31.5547 -83.9683 338° Northwest 429 494 28,000  Level Atlanta Center
Wed 09:44:53 AM 31.6736 -83.9950 349° North 429 494 28,000  Level Atlanta Center
Wed 09:45:53 AM 31.7717 -84.0169 349° North 429 494 28,000  Level Atlanta Center
Wed 09:46:53 AM 31.9011 -84.0461 349° North 429 494 28,000  Level Atlanta Center
Wed 09:47:53 AM 32.0181 -84.0706 350° North 429 494 28,000  Level Atlanta Center
Wed 09:48:53 AM 32.1347 -84.0953 350° North 429 494 28,000  Level Atlanta Center
Wed 09:49:53 AM 32.2558 -84.1222 349° North 429 494 28,000  Level Atlanta Center
Wed 09:50:53 AM 32.3706 -84.1494 349° North 429 494 28,000  Level Atlanta Center
Wed 09:51:53 AM 32.4856 -84.1767 349° North 429 494 28,000  Level Atlanta Center
Wed 09:52:53 AM 32.6044 -84.2042 349° North 429 494 28,000  Level Atlanta Center
Wed 09:53:53 AM 32.7211 -84.2289 350° North 429 494 28,000  Level Atlanta Center
Wed 09:54:53 AM 32.8381 -84.2589 348° North 429 494 28,000  Level Atlanta Center
Wed 09:55:53 AM 32.9569 -84.2839 350° North 429 494 28,000  Level Atlanta Center
Wed 09:56:53 AM 33.0758 -84.3117 349° North 429 494 28,000  Level Atlanta Center
Wed 09:57:53 AM 33.1928 -84.3417 348° North 429 494 28,000  Level Atlanta Center
Wed 09:58:53 AM 33.3117 -84.3644 351° North 429 494 28,000  Level Atlanta Center
Wed 09:59:53 AM 33.4411 -84.3922 350° North 429 494 28,000  Level Atlanta Center
Wed 10:00:53 AM 33.5558 -84.4228 347° North 434 499 28,000  Level Atlanta Center
Wed 10:01:53 AM 33.6767 -84.4481 350° North 427 491 28,000  Level Atlanta Center
Wed 10:02:53 AM 33.7936 -84.4761 349° North 438 504 28,000  Level Atlanta Center
Wed 10:03:53 AM 33.9144 -84.5019 350° North 429 494 28,000  Level Atlanta Center
Wed 10:04:53 AM 34.0208 -84.5275 349° North 431 496 28,000 -700 Level Atlanta Center
Wed 10:05:53 AM 34.1397 -84.5533 350° North 431 496 26,600 -1,400 Descending Atlanta Center
Wed 10:06:53 AM 34.2586 -84.5767 351° North 431 496 25,200 -800 Descending Atlanta Center
Wed 10:07:53 AM 34.3733 -84.5950 352° North 431 496 25,000 -400 Descending Atlanta Center
Wed 10:08:53 AM 34.4836 -84.6158 351° North 420 483 24,400 -500 Descending Atlanta Center
Wed 10:09:53 AM 34.6006 -84.6394 351° North 420 483 24,000 -400 Descending Atlanta Center
Wed 10:10:53 AM 34.7172 -84.6603 352° North 420 483 23,600 -1,100 Descending Atlanta Center
Wed 10:11:53 AM 34.8339 -84.6817 351° North 420 483 21,800 -1,800 Descending Atlanta Center
Wed 10:12:53 AM 34.9508 -84.7028 352° North 425 489 20,000 -1,800 Descending Atlanta Center
Wed 10:13:53 AM 35.0633 -84.7214 352° North 425 489 18,200 -1,750 Descending Atlanta Center
Wed 10:14:53 AM 35.1697 -84.7450 350° North 404 465 16,500 -1,750 Descending Atlanta Center
Wed 10:15:53 AM 35.2758 -84.7639 352° North 392 451 14,700 -1,850 Descending Atlanta Center
Wed 10:16:53 AM 35.3781 -84.7825 352° North 382 440 12,800 -1,350 Descending Atlanta Center
Wed 10:17:53 AM 35.4678 -84.7986 352° North 353 406 12,000 -1,050 Descending Atlanta Center
Wed 10:18:53 AM 35.5489 -84.8147 351° North 317 365 10,700 -1,400 Descending Atlanta Center
Wed 10:19:53 AM 35.6303 -84.8283 352° North 298 343 9,200 -1,350 Descending Atlanta Center
Wed 10:20:53 AM 35.7094 -84.8444 351° North 293 337 8,000 -700 Descending Atlanta Center
Wed 10:21:53 AM 35.7781 -84.8578 351° North 273 314 7,800 -850 Descending Atlanta Center
Wed 10:22:53 AM 35.8469 -84.8689 353° North 260 299 6,300 -1,500 Descending Atlanta Center
Wed 10:23:53 AM 35.9056 -84.8386 23° Northeast 212 244 4,800 -750 Descending Atlanta Center
Wed 10:24:53 AM 35.9497 -84.7956 38° Northeast 199 229 4,800  Level Atlanta Center
Wed 10:25:53 AM 35.9956 -84.7908 North 177 204 4,800  Level Atlanta Center
Wed 10:26:53 AM 36.0036 -84.8447 280° West 114 131 4,800 -50 Level Atlanta Center
Wed 10:27:54 AM 35.9947 -84.9036 259° West 125 144 4,700 -98 Descending Atlanta Center

Login

Don't have an account? Register now (free) for customized features, flight alerts, and more!